createdAt,value
2018-11-05T00:00:14.376Z,986.67
2018-11-05T00:01:14.513Z,986.66
2018-11-05T00:02:14.660Z,986.66
2018-11-05T00:03:14.791Z,986.63
2018-11-05T00:04:14.925Z,986.68
2018-11-05T00:05:15.058Z,986.63
2018-11-05T00:06:15.218Z,986.62
2018-11-05T00:07:15.345Z,986.61
2018-11-05T00:08:15.478Z,986.65
2018-11-05T00:09:15.607Z,986.67
2018-11-05T00:10:15.745Z,986.65
2018-11-05T00:11:15.874Z,986.63
2018-11-05T00:12:16.011Z,986.62
2018-11-05T00:13:16.167Z,986.60
2018-11-05T00:14:16.331Z,986.56
2018-11-05T00:15:16.462Z,986.53
2018-11-05T00:16:16.582Z,986.51
2018-11-05T00:17:16.733Z,986.49
2018-11-05T00:18:16.899Z,986.40
2018-11-05T00:19:17.065Z,986.38
2018-11-05T00:20:17.195Z,986.35
2018-11-05T00:21:17.350Z,986.33
2018-11-05T00:22:17.487Z,986.37
2018-11-05T00:23:17.623Z,986.32
2018-11-05T00:24:17.753Z,986.31
2018-11-05T00:25:17.915Z,986.30
2018-11-05T00:26:18.044Z,986.27
2018-11-05T00:27:18.182Z,986.26
2018-11-05T00:28:18.312Z,986.29
2018-11-05T00:29:18.473Z,986.29
2018-11-05T00:30:18.601Z,986.29
2018-11-05T00:31:18.740Z,986.25
2018-11-05T00:32:18.894Z,986.24
2018-11-05T00:33:19.042Z,986.25
2018-11-05T00:34:19.174Z,986.25
2018-11-05T00:35:19.313Z,986.25
2018-11-05T00:36:19.449Z,986.29
2018-11-05T00:37:19.595Z,986.28
2018-11-05T00:38:19.730Z,986.32
2018-11-05T00:39:19.875Z,986.31
2018-11-05T00:40:20.009Z,986.33
2018-11-05T00:41:20.147Z,986.32
2018-11-05T00:42:20.273Z,986.33
2018-11-05T00:43:20.407Z,986.30
2018-11-05T00:44:20.552Z,986.30
2018-11-05T00:45:20.712Z,986.32
2018-11-05T00:46:20.934Z,986.37
2018-11-05T00:47:20.946Z,986.41
2018-11-05T00:48:21.079Z,986.39
2018-11-05T00:49:21.225Z,986.39
2018-11-05T00:50:21.359Z,986.40
2018-11-05T00:51:21.496Z,986.34
2018-11-05T00:52:21.639Z,986.32
2018-11-05T00:53:21.789Z,986.28
2018-11-05T00:54:21.924Z,986.23
2018-11-05T00:55:22.082Z,986.22
2018-11-05T00:56:22.232Z,986.23
2018-11-05T00:57:22.406Z,986.17
2018-11-05T00:58:22.543Z,986.18
2018-11-05T00:59:22.703Z,986.12
2018-11-05T01:00:22.840Z,986.10
2018-11-05T01:01:22.973Z,986.06
2018-11-05T01:02:23.107Z,986.04
2018-11-05T01:03:23.260Z,986.03
2018-11-05T01:04:23.503Z,986.03
2018-11-05T01:05:23.514Z,986.01
2018-11-05T01:06:23.647Z,986.00
2018-11-05T01:07:23.803Z,985.97
2018-11-05T01:08:23.934Z,985.99
2018-11-05T01:09:24.800Z,985.98
2018-11-05T01:11:56.569Z,985.89
2018-11-05T01:12:57.234Z,985.91
2018-11-05T01:13:56.850Z,985.89
2018-11-05T01:14:56.989Z,985.92
2018-11-05T01:15:57.120Z,985.87
2018-11-05T01:16:57.251Z,985.92
2018-11-05T01:17:57.411Z,985.92
2018-11-05T01:18:57.571Z,985.87
2018-11-05T01:19:57.679Z,985.88
2018-11-05T01:20:57.826Z,985.84
2018-11-05T01:21:57.985Z,985.79
2018-11-05T01:22:58.122Z,985.76
2018-11-05T01:23:58.256Z,985.70
2018-11-05T01:24:58.390Z,985.66
2018-11-05T01:25:58.589Z,985.60
2018-11-05T01:26:58.720Z,985.62
2018-11-05T01:27:58.847Z,985.66
2018-11-05T01:28:59.834Z,985.65
2018-11-05T01:29:59.152Z,985.64
2018-11-05T01:30:59.286Z,985.66
2018-11-05T01:31:59.418Z,985.73
2018-11-05T01:32:59.571Z,985.76
2018-11-05T01:33:59.701Z,985.73
2018-11-05T01:34:59.837Z,985.80
2018-11-05T01:35:59.971Z,985.79
2018-11-05T01:37:00.128Z,985.77
2018-11-05T01:38:00.240Z,985.75
2018-11-05T01:39:00.372Z,985.78
2018-11-05T01:40:00.503Z,985.76
2018-11-05T01:41:00.663Z,985.75
2018-11-05T01:42:00.790Z,985.67
2018-11-05T01:43:00.919Z,985.65
2018-11-05T01:44:01.059Z,985.61
2018-11-05T01:45:01.234Z,985.53
2018-11-05T01:46:01.466Z,985.55
2018-11-05T01:47:01.474Z,985.61
2018-11-05T01:48:01.615Z,985.62
2018-11-05T01:49:01.767Z,985.62
2018-11-05T01:50:02.005Z,985.61
2018-11-05T01:51:02.008Z,985.59
2018-11-05T01:52:02.137Z,985.59
2018-11-05T01:53:02.277Z,985.58
2018-11-05T01:54:03.253Z,985.52
2018-11-05T01:55:02.541Z,985.51
2018-11-05T01:56:02.696Z,985.51
2018-11-05T01:57:02.827Z,985.45
2018-11-05T01:58:02.963Z,985.41
2018-11-05T01:59:03.107Z,985.39
2018-11-05T02:00:03.245Z,985.38
2018-11-05T02:01:03.407Z,985.27
2018-11-05T02:02:03.537Z,985.26
2018-11-05T02:03:03.675Z,985.25
2018-11-05T02:04:03.843Z,985.16
2018-11-05T02:05:03.968Z,985.19
2018-11-05T02:06:04.162Z,985.18
2018-11-05T02:07:04.294Z,985.14
2018-11-05T02:08:04.460Z,985.15
2018-11-05T02:09:04.721Z,985.14
2018-11-05T02:10:04.782Z,985.09
2018-11-05T02:11:04.869Z,985.15
2018-11-05T02:12:05.023Z,985.11
2018-11-05T02:13:05.242Z,985.09
2018-11-05T02:14:05.238Z,985.06
2018-11-05T02:15:05.369Z,985.06
2018-11-05T02:16:05.605Z,985.04
2018-11-05T02:17:05.635Z,985.04
2018-11-05T02:18:05.877Z,985.06
2018-11-05T02:19:05.886Z,985.09
2018-11-05T02:20:06.057Z,985.07
2018-11-05T02:21:06.176Z,985.09
2018-11-05T02:22:06.414Z,985.10
2018-11-05T02:23:06.474Z,985.12
2018-11-05T02:24:06.637Z,985.12
2018-11-05T02:25:06.772Z,985.16
2018-11-05T02:26:06.925Z,985.22
2018-11-05T02:27:07.090Z,985.23
2018-11-05T02:28:07.208Z,985.27
2018-11-05T02:29:07.349Z,985.28
2018-11-05T02:30:07.477Z,985.25
2018-11-05T02:31:07.630Z,985.25
2018-11-05T02:32:07.753Z,985.22
2018-11-05T02:33:07.890Z,985.26
2018-11-05T02:34:08.024Z,985.27
2018-11-05T02:35:08.193Z,985.28
2018-11-05T02:36:08.354Z,985.27
2018-11-05T02:37:08.488Z,985.27
2018-11-05T02:38:08.680Z,985.25
2018-11-05T02:39:08.846Z,985.27
2018-11-05T02:40:08.964Z,985.25
2018-11-05T02:41:09.139Z,985.23
2018-11-05T02:42:09.274Z,985.20
2018-11-05T02:43:09.433Z,985.20
2018-11-05T02:44:09.634Z,985.20
2018-11-05T02:45:09.641Z,985.22
2018-11-05T02:46:09.781Z,985.13
2018-11-05T02:47:09.930Z,985.14
2018-11-05T02:48:10.184Z,985.15
2018-11-05T02:49:10.187Z,985.18
2018-11-05T02:50:10.320Z,985.18
2018-11-05T02:51:10.469Z,985.17
2018-11-05T02:52:10.718Z,985.21
2018-11-05T02:53:10.722Z,985.17
2018-11-05T02:54:10.862Z,985.14
2018-11-05T02:55:10.997Z,985.18
2018-11-05T02:56:11.128Z,985.19
2018-11-05T02:57:11.268Z,985.24
2018-11-05T02:58:11.399Z,985.19
2018-11-05T02:59:11.541Z,985.21
2018-11-05T03:00:11.673Z,985.21
2018-11-05T03:01:11.809Z,985.20
2018-11-05T03:02:11.945Z,985.20
2018-11-05T03:03:12.091Z,985.23
2018-11-05T03:04:12.219Z,985.16
2018-11-05T03:05:12.358Z,985.16
2018-11-05T03:06:12.489Z,985.17
2018-11-05T03:07:12.625Z,985.10
2018-11-05T03:08:12.758Z,985.07
2018-11-05T03:09:12.889Z,985.07
2018-11-05T03:10:13.055Z,985.03
2018-11-05T03:11:13.196Z,985.08
2018-11-05T03:12:13.328Z,985.06
2018-11-05T03:13:13.466Z,985.04
2018-11-05T03:14:13.597Z,985.09
2018-11-05T03:15:13.734Z,985.13
2018-11-05T03:16:13.867Z,985.17
2018-11-05T03:17:14.003Z,985.18
2018-11-05T03:18:14.143Z,985.13
2018-11-05T03:19:14.272Z,985.17
2018-11-05T03:20:14.410Z,985.16
2018-11-05T03:21:14.547Z,985.17
2018-11-05T03:22:14.682Z,985.18
2018-11-05T03:23:14.833Z,985.19
2018-11-05T03:24:14.961Z,985.18
2018-11-05T03:25:15.095Z,985.13
2018-11-05T03:26:15.230Z,985.10
2018-11-05T03:27:15.363Z,985.09
2018-11-05T03:28:15.500Z,985.14
2018-11-05T03:29:15.634Z,985.17
2018-11-05T03:30:15.781Z,985.24
2018-11-05T03:31:15.906Z,985.22
2018-11-05T03:32:16.036Z,985.22
2018-11-05T03:33:16.167Z,985.21
2018-11-05T03:34:16.305Z,985.19
2018-11-05T03:35:16.441Z,985.22
2018-11-05T03:36:16.573Z,985.17
2018-11-05T03:37:16.708Z,985.13
2018-11-05T03:38:16.846Z,985.11
2018-11-05T03:39:16.984Z,985.07
2018-11-05T03:40:17.158Z,985.01
2018-11-05T03:41:17.294Z,984.96
2018-11-05T03:42:17.431Z,984.96
2018-11-05T03:43:17.566Z,984.90
2018-11-05T03:44:17.697Z,984.86
2018-11-05T03:45:17.835Z,984.83
2018-11-05T03:46:17.965Z,984.81
2018-11-05T03:47:18.098Z,984.81
2018-11-05T03:48:18.235Z,984.78
2018-11-05T03:49:18.366Z,984.79
2018-11-05T03:50:18.501Z,984.79
2018-11-05T03:51:18.638Z,984.77
2018-11-05T03:52:18.776Z,984.81
2018-11-05T03:53:18.908Z,984.83
2018-11-05T03:54:19.043Z,984.83
2018-11-05T03:55:19.179Z,984.79
2018-11-05T03:56:19.513Z,984.78
2018-11-05T03:57:19.443Z,984.73
2018-11-05T03:58:19.579Z,984.72
2018-11-05T03:59:19.717Z,984.73
2018-11-05T04:00:19.848Z,984.74
2018-11-05T04:01:19.993Z,984.72
2018-11-05T04:02:20.124Z,984.73
2018-11-05T04:03:20.362Z,984.76
2018-11-05T04:04:20.392Z,984.78
2018-11-05T04:05:20.528Z,984.76
2018-11-05T04:06:20.662Z,984.76
2018-11-05T04:07:20.802Z,984.79
2018-11-05T04:08:20.970Z,984.79
2018-11-05T04:09:21.106Z,984.72
2018-11-05T04:10:21.242Z,984.70
2018-11-05T04:11:21.416Z,984.68
2018-11-05T04:12:21.545Z,984.61
2018-11-05T04:13:21.681Z,984.58
2018-11-05T04:14:21.818Z,984.59
2018-11-05T04:15:22.015Z,984.54
2018-11-05T04:16:22.088Z,984.49
2018-11-05T04:17:22.223Z,984.41
2018-11-05T04:18:22.356Z,984.42
2018-11-05T04:19:22.498Z,984.41
2018-11-05T04:20:22.702Z,984.47
2018-11-05T04:21:22.706Z,984.45
2018-11-05T04:22:22.841Z,984.45
2018-11-05T04:23:23.005Z,984.46
2018-11-05T04:24:23.136Z,984.43
2018-11-05T04:25:23.270Z,984.43
2018-11-05T04:26:23.406Z,984.47
2018-11-05T04:27:23.561Z,984.42
2018-11-05T04:28:23.747Z,984.44
2018-11-05T04:29:23.886Z,984.43
2018-11-05T04:30:24.017Z,984.42
2018-11-05T04:31:24.154Z,984.46
2018-11-05T04:32:24.392Z,984.44
2018-11-05T04:33:24.398Z,984.49
2018-11-05T04:34:24.537Z,984.48
2018-11-05T04:35:24.696Z,984.48
2018-11-05T04:36:24.931Z,984.48
2018-11-05T04:37:24.936Z,984.48
2018-11-05T04:38:25.070Z,984.50
2018-11-05T04:39:25.223Z,984.51
2018-11-05T04:40:25.466Z,984.56
2018-11-05T04:41:25.483Z,984.64
2018-11-05T04:42:25.618Z,984.61
2018-11-05T04:43:25.775Z,984.58
2018-11-05T04:44:47.948Z,984.60
2018-11-05T04:45:26.076Z,984.63
2018-11-05T04:46:26.885Z,984.61
2018-11-05T04:47:26.452Z,984.60
2018-11-05T04:48:31.455Z,984.55
2018-11-05T04:49:26.712Z,984.60
2018-11-05T04:50:26.846Z,984.58
2018-11-05T04:51:26.985Z,984.56
2018-11-05T04:52:27.125Z,984.52
2018-11-05T04:53:27.258Z,984.48
2018-11-05T04:54:27.391Z,984.49
2018-11-05T04:55:27.529Z,984.49
2018-11-05T04:56:27.665Z,984.46
2018-11-05T04:57:27.800Z,984.47
2018-11-05T04:58:27.935Z,984.43
2018-11-05T04:59:28.067Z,984.46
2018-11-05T05:00:28.199Z,984.44
2018-11-05T05:01:28.337Z,984.47
2018-11-05T05:02:28.471Z,984.48
2018-11-05T05:03:28.654Z,984.52
2018-11-05T05:04:28.736Z,984.54
2018-11-05T05:05:28.873Z,984.52
2018-11-05T05:06:29.009Z,984.51
2018-11-05T05:07:29.143Z,984.49
2018-11-05T05:08:29.283Z,984.54
2018-11-05T05:09:29.413Z,984.50
2018-11-05T05:10:29.552Z,984.52
2018-11-05T05:11:29.683Z,984.52
2018-11-05T05:12:29.818Z,984.50
2018-11-05T05:13:29.955Z,984.50
2018-11-05T05:14:30.091Z,984.44
2018-11-05T05:15:30.224Z,984.43
2018-11-05T05:16:30.371Z,984.44
2018-11-05T05:17:30.498Z,984.40
2018-11-05T05:18:30.635Z,984.38
2018-11-05T05:19:30.783Z,984.38
2018-11-05T05:20:30.915Z,984.41
2018-11-05T05:21:31.053Z,984.44
2018-11-05T05:22:31.235Z,984.42
2018-11-05T05:23:31.319Z,984.43
2018-11-05T05:24:31.497Z,984.42
2018-11-05T05:25:31.632Z,984.39
2018-11-05T05:26:31.762Z,984.31
2018-11-05T05:27:31.904Z,984.34
2018-11-05T05:28:32.036Z,984.31
2018-11-05T05:29:32.169Z,984.34
2018-11-05T05:30:32.311Z,984.30
2018-11-05T05:31:32.441Z,984.34
2018-11-05T05:32:32.579Z,984.37
2018-11-05T05:33:32.858Z,984.37
2018-11-05T05:34:32.847Z,984.40
2018-11-05T05:35:32.989Z,984.39
2018-11-05T05:36:33.120Z,984.40
2018-11-05T05:37:33.260Z,984.40
2018-11-05T05:38:33.390Z,984.38
2018-11-05T05:39:33.526Z,984.45
2018-11-05T05:40:33.682Z,984.52
2018-11-05T05:41:33.800Z,984.53
2018-11-05T05:42:33.932Z,984.53
2018-11-05T05:43:34.071Z,984.56
2018-11-05T05:44:34.204Z,984.55
2018-11-05T05:45:34.337Z,984.55
2018-11-05T05:46:34.484Z,984.56
2018-11-05T05:47:34.608Z,984.61
2018-11-05T05:48:34.742Z,984.61
2018-11-05T05:49:34.878Z,984.65
2018-11-05T05:50:35.020Z,984.64
2018-11-05T05:51:35.151Z,984.65
2018-11-05T05:52:35.285Z,984.64
2018-11-05T05:53:35.458Z,984.62
2018-11-05T05:54:35.589Z,984.64
2018-11-05T05:55:35.730Z,984.61
2018-11-05T05:56:35.861Z,984.60
2018-11-05T05:57:35.997Z,984.58
2018-11-05T05:58:36.125Z,984.64
2018-11-05T05:59:36.268Z,984.61
2018-11-05T06:00:36.406Z,984.60
2018-11-05T06:01:36.539Z,984.55
2018-11-05T06:02:36.706Z,984.61
2018-11-05T06:03:36.848Z,984.64
2018-11-05T06:04:36.982Z,984.66
2018-11-05T06:05:37.917Z,984.66
2018-11-05T06:06:37.382Z,984.63
2018-11-05T06:07:37.411Z,984.60
2018-11-05T06:08:38.416Z,984.59
2018-11-05T06:09:37.708Z,984.53
2018-11-05T06:10:37.836Z,984.51
2018-11-05T06:11:37.971Z,984.47
2018-11-05T06:12:38.103Z,984.48
2018-11-05T06:13:38.240Z,984.50
2018-11-05T06:14:38.368Z,984.51
2018-11-05T06:15:38.508Z,984.53
2018-11-05T06:16:38.638Z,984.56
2018-11-05T06:17:38.766Z,984.53
2018-11-05T06:18:38.901Z,984.55
2018-11-05T06:19:39.036Z,984.55
2018-11-05T06:20:39.168Z,984.54
2018-11-05T06:21:39.363Z,984.60
2018-11-05T06:22:39.440Z,984.56
2018-11-05T06:23:39.570Z,984.62
2018-11-05T06:24:39.713Z,984.66
2018-11-05T06:25:39.844Z,984.66
2018-11-05T06:26:39.977Z,984.65
2018-11-05T06:27:40.115Z,984.63
2018-11-05T06:28:40.314Z,984.66
2018-11-05T06:29:40.377Z,984.63
2018-11-05T06:30:40.510Z,984.65
2018-11-05T06:31:41.433Z,984.60
2018-11-05T06:32:40.725Z,984.61
2018-11-05T06:33:40.847Z,984.66
2018-11-05T06:34:40.982Z,984.63
2018-11-05T06:35:41.116Z,984.59
2018-11-05T06:36:41.245Z,984.57
2018-11-05T06:37:41.379Z,984.64
2018-11-05T06:38:41.522Z,984.68
2018-11-05T06:39:41.655Z,984.66
2018-11-05T06:40:41.790Z,984.68
2018-11-05T06:41:41.978Z,984.62
2018-11-05T06:42:42.060Z,984.69
2018-11-05T06:43:42.188Z,984.71
2018-11-05T06:44:42.344Z,984.70
2018-11-05T06:45:42.458Z,984.67
2018-11-05T06:46:42.592Z,984.67
2018-11-05T06:47:42.725Z,984.67
2018-11-05T06:48:42.948Z,984.65
2018-11-05T06:49:43.048Z,984.60
2018-11-05T06:50:43.184Z,984.62
2018-11-05T06:51:43.363Z,984.62
2018-11-05T06:52:43.562Z,984.53
2018-11-05T06:53:43.568Z,984.57
2018-11-05T06:54:43.705Z,984.50
2018-11-05T06:55:43.876Z,984.50
2018-11-05T06:56:44.106Z,984.48
2018-11-05T06:57:44.187Z,984.42
2018-11-05T06:58:44.253Z,984.46
2018-11-05T06:59:44.428Z,984.54
2018-11-05T07:00:44.638Z,984.52
2018-11-05T07:01:44.646Z,984.49
2018-11-05T07:02:44.779Z,984.47
2018-11-05T07:03:44.928Z,984.49
2018-11-05T07:04:45.074Z,984.52
2018-11-05T07:05:45.226Z,984.51
2018-11-05T07:06:45.338Z,984.56
2018-11-05T07:07:45.506Z,984.62
2018-11-05T07:08:45.632Z,984.69
2018-11-05T07:09:45.792Z,984.61
2018-11-05T07:10:45.897Z,984.65
2018-11-05T07:11:46.053Z,984.63
2018-11-05T07:12:46.183Z,984.61
2018-11-05T07:13:46.318Z,984.60
2018-11-05T07:14:46.454Z,984.62
2018-11-05T07:15:46.606Z,984.60
2018-11-05T07:16:46.787Z,984.60
2018-11-05T07:17:46.921Z,984.61
2018-11-05T07:18:47.147Z,984.66
2018-11-05T07:19:47.209Z,984.75
2018-11-05T07:20:47.344Z,984.71
2018-11-05T07:21:47.478Z,984.68
2018-11-05T07:22:47.609Z,984.65
2018-11-05T07:23:47.764Z,984.62
2018-11-05T07:24:47.967Z,984.59
2018-11-05T07:25:47.976Z,984.60
2018-11-05T07:26:48.115Z,984.61
2018-11-05T07:27:48.493Z,984.59
2018-11-05T07:28:48.413Z,984.56
2018-11-05T07:29:48.546Z,984.65
2018-11-05T07:30:48.677Z,984.64
2018-11-05T07:31:48.806Z,984.66
2018-11-05T07:32:49.954Z,984.66
2018-11-05T07:33:49.195Z,984.67
2018-11-05T07:34:49.170Z,984.66
2018-11-05T07:35:49.310Z,984.66
2018-11-05T07:36:49.450Z,984.67
2018-11-05T07:37:49.571Z,984.68
2018-11-05T07:38:49.708Z,984.71
2018-11-05T07:39:49.876Z,984.73
2018-11-05T07:40:50.020Z,984.75
2018-11-05T07:41:50.148Z,984.76
2018-11-05T07:42:50.288Z,984.71
2018-11-05T07:43:50.438Z,984.67
2018-11-05T07:44:50.663Z,984.64
2018-11-05T07:45:50.674Z,984.60
2018-11-05T07:46:50.798Z,984.54
2018-11-05T07:47:51.001Z,984.58
2018-11-05T07:48:51.086Z,984.54
2018-11-05T07:49:51.237Z,984.55
2018-11-05T07:50:51.429Z,984.59
2018-11-05T07:51:51.528Z,984.64
2018-11-05T07:52:51.673Z,984.63
2018-11-05T07:53:51.815Z,984.58
2018-11-05T07:54:51.944Z,984.56
2018-11-05T07:55:52.097Z,984.54
2018-11-05T07:56:52.447Z,984.59
2018-11-05T07:57:52.410Z,984.63
2018-11-05T07:58:52.553Z,984.67
2018-11-05T07:59:52.712Z,984.69
2018-11-05T08:00:52.848Z,984.69
2018-11-05T08:01:53.867Z,984.65
2018-11-05T08:02:53.249Z,984.67
2018-11-05T08:03:53.299Z,984.65
2018-11-05T08:04:53.443Z,984.64
2018-11-05T08:05:53.574Z,984.67
2018-11-05T08:06:53.748Z,984.62
2018-11-05T08:07:53.876Z,984.58
2018-11-05T08:08:54.011Z,984.55
2018-11-05T08:09:54.144Z,984.56
2018-11-05T08:10:54.287Z,984.54
2018-11-05T08:11:54.419Z,984.48
2018-11-05T08:12:54.547Z,984.55
2018-11-05T08:13:54.687Z,984.55
2018-11-05T08:14:54.870Z,984.62
2018-11-05T08:15:55.002Z,984.72
2018-11-05T08:16:55.908Z,984.69
2018-11-05T08:17:55.279Z,984.66
2018-11-05T08:18:55.410Z,984.62
2018-11-05T08:19:55.584Z,984.62
2018-11-05T08:20:55.736Z,984.62
2018-11-05T08:21:55.893Z,984.61
2018-11-05T08:22:56.035Z,984.66
2018-11-05T08:23:56.163Z,984.66
2018-11-05T08:24:56.299Z,984.73
2018-11-05T08:25:56.433Z,984.73
2018-11-05T08:26:56.565Z,984.75
2018-11-05T08:27:56.698Z,984.67
2018-11-05T08:28:56.840Z,984.73
2018-11-05T08:29:57.008Z,984.75
2018-11-05T08:30:57.213Z,984.78
2018-11-05T08:31:57.226Z,984.81
2018-11-05T08:32:57.357Z,984.72
2018-11-05T08:33:57.519Z,984.70
2018-11-05T08:34:58.731Z,984.70
2018-11-05T08:35:57.733Z,984.75
2018-11-05T08:36:57.861Z,984.75
2018-11-05T08:37:58.064Z,984.77
2018-11-05T08:39:02.917Z,984.68
2018-11-05T08:39:58.307Z,984.61
2018-11-05T08:40:58.432Z,984.58
2018-11-05T08:41:58.589Z,984.56
2018-11-05T08:42:58.714Z,984.53
2018-11-05T08:43:58.847Z,984.55
2018-11-05T08:44:58.979Z,984.53
2018-11-05T08:45:59.189Z,984.55
2018-11-05T08:46:59.310Z,984.54
2018-11-05T08:47:59.325Z,984.53
2018-11-05T08:48:59.459Z,984.54
2018-11-05T08:49:59.627Z,984.55
2018-11-05T08:51:14.620Z,984.57
2018-11-05T08:51:59.933Z,984.56
2018-11-05T08:53:00.063Z,984.57
2018-11-05T08:54:00.263Z,984.58
2018-11-05T08:55:00.334Z,984.60
2018-11-05T08:56:00.464Z,984.61
2018-11-05T08:57:00.602Z,984.61
2018-11-05T08:58:00.740Z,984.65
2018-11-05T08:59:00.879Z,984.66
2018-11-05T09:00:01.011Z,984.66
2018-11-05T09:01:01.188Z,984.67
2018-11-05T09:02:01.282Z,984.65
2018-11-05T09:03:01.416Z,984.65
2018-11-05T09:04:01.555Z,984.60
2018-11-05T09:05:01.755Z,984.61
2018-11-05T09:06:01.822Z,984.58
2018-11-05T09:07:01.954Z,984.55
2018-11-05T09:08:02.087Z,984.53
2018-11-05T09:09:02.222Z,984.48
2018-11-05T09:10:02.498Z,984.45
2018-11-05T09:11:02.979Z,984.43
2018-11-05T09:12:02.707Z,984.44
2018-11-05T09:13:02.755Z,984.44
2018-11-05T09:14:02.928Z,984.41
2018-11-05T09:15:03.112Z,984.41
2018-11-05T09:16:03.281Z,984.41
2018-11-05T09:17:03.459Z,984.35
2018-11-05T09:18:03.506Z,984.35
2018-11-05T09:19:03.640Z,984.31
2018-11-05T09:20:03.787Z,984.29
2018-11-05T09:21:03.918Z,984.29
2018-11-05T09:22:04.052Z,984.31
2018-11-05T09:23:04.215Z,984.36
2018-11-05T09:24:04.351Z,984.36
2018-11-05T09:25:04.489Z,984.38
2018-11-05T09:26:04.648Z,984.39
2018-11-05T09:27:04.791Z,984.40
2018-11-05T09:28:05.086Z,984.44
2018-11-05T09:29:05.078Z,984.41
2018-11-05T09:30:05.225Z,984.40
2018-11-05T09:31:05.368Z,984.46
2018-11-05T09:32:05.607Z,984.45
2018-11-05T09:33:05.614Z,984.46
2018-11-05T09:34:05.768Z,984.39
2018-11-05T09:35:05.935Z,984.38
2018-11-05T09:36:06.066Z,984.32
2018-11-05T09:37:06.214Z,984.32
2018-11-05T09:38:06.365Z,984.34
2018-11-05T09:39:06.505Z,984.34
2018-11-05T09:40:06.635Z,984.32
2018-11-05T09:41:06.797Z,984.35
2018-11-05T09:42:06.934Z,984.31
2018-11-05T09:43:07.068Z,984.37
2018-11-05T09:44:07.199Z,984.35
2018-11-05T09:45:07.336Z,984.32
2018-11-05T09:46:07.506Z,984.33
2018-11-05T09:47:07.537Z,984.38
2018-11-05T09:48:07.666Z,984.45
2018-11-05T09:49:07.805Z,984.45
2018-11-05T09:50:07.983Z,984.47
2018-11-05T09:51:08.116Z,984.47
2018-11-05T09:52:08.250Z,984.43
2018-11-05T09:53:08.405Z,984.47
2018-11-05T09:54:08.543Z,984.45
2018-11-05T09:55:08.679Z,984.47
2018-11-05T09:56:08.843Z,984.45
2018-11-05T09:57:09.055Z,984.44
2018-11-05T09:58:09.122Z,984.48
2018-11-05T09:59:09.266Z,984.45
2018-11-05T10:00:09.403Z,984.50
2018-11-05T10:01:09.538Z,984.51
2018-11-05T10:02:09.709Z,984.52
2018-11-05T10:04:42.791Z,984.48
2018-11-05T10:05:42.560Z,984.48
2018-11-05T10:06:42.689Z,984.49
2018-11-05T10:07:42.827Z,984.43
2018-11-05T10:08:42.962Z,984.43
2018-11-05T10:09:43.140Z,984.41
2018-11-05T10:10:43.229Z,984.42
2018-11-05T10:11:43.361Z,984.45
2018-11-05T10:12:43.496Z,984.46
2018-11-05T10:13:43.632Z,984.42
2018-11-05T10:14:43.767Z,984.43
2018-11-05T10:15:43.903Z,984.43
2018-11-05T10:16:44.045Z,984.37
2018-11-05T10:17:44.176Z,984.34
2018-11-05T10:18:44.322Z,984.31
2018-11-05T10:19:44.454Z,984.32
2018-11-05T10:20:44.580Z,984.23
2018-11-05T10:21:44.720Z,984.27
2018-11-05T10:22:44.862Z,984.20
2018-11-05T10:23:44.999Z,984.19
2018-11-05T10:24:45.171Z,984.16
2018-11-05T10:25:45.266Z,984.13
2018-11-05T10:26:45.434Z,984.09
2018-11-05T10:27:45.575Z,984.09
2018-11-05T10:28:45.711Z,984.11
2018-11-05T10:29:45.873Z,984.09
2018-11-05T10:30:46.020Z,984.10
2018-11-05T10:31:46.157Z,984.07
2018-11-05T10:32:46.293Z,984.14
2018-11-05T10:33:46.520Z,984.16
2018-11-05T10:34:46.566Z,984.17
2018-11-05T10:35:46.706Z,984.10
2018-11-05T10:36:46.854Z,984.10
2018-11-05T10:37:46.990Z,984.11
2018-11-05T10:38:47.194Z,984.14
2018-11-05T10:39:47.207Z,984.16
2018-11-05T10:40:47.341Z,984.16
2018-11-05T10:41:47.477Z,984.14
2018-11-05T10:42:47.618Z,984.09
2018-11-05T10:43:47.749Z,984.12
2018-11-05T10:44:47.901Z,984.14
2018-11-05T10:45:48.037Z,984.18
2018-11-05T10:46:48.173Z,984.15
2018-11-05T10:47:48.313Z,984.10
2018-11-05T10:48:48.454Z,984.05
2018-11-05T10:49:48.583Z,983.98
2018-11-05T10:50:48.774Z,983.99
2018-11-05T10:51:48.950Z,984.01
2018-11-05T10:52:48.995Z,984.04
2018-11-05T10:53:49.129Z,984.07
2018-11-05T10:54:49.264Z,984.13
2018-11-05T10:55:49.400Z,984.11
2018-11-05T10:56:49.602Z,984.05
2018-11-05T10:57:49.682Z,984.09
2018-11-05T10:58:49.838Z,984.05
2018-11-05T10:59:49.983Z,984.04
2018-11-05T11:00:50.113Z,984.00
2018-11-05T11:01:50.252Z,984.02
2018-11-05T11:02:50.392Z,984.02
2018-11-05T11:03:50.620Z,984.00
2018-11-05T11:04:50.700Z,984.00
2018-11-05T11:05:50.842Z,983.99
2018-11-05T11:06:50.990Z,983.94
2018-11-05T11:07:51.149Z,983.95
2018-11-05T11:08:51.288Z,983.93
2018-11-05T11:09:51.515Z,983.88
2018-11-05T11:10:51.533Z,983.84
2018-11-05T11:11:51.686Z,983.85
2018-11-05T11:12:51.870Z,983.83
2018-11-05T11:13:51.969Z,983.87
2018-11-05T11:14:52.101Z,983.84
2018-11-05T11:15:52.259Z,983.84
2018-11-05T11:16:52.482Z,983.86
2018-11-05T11:17:52.502Z,983.84
2018-11-05T11:18:52.636Z,983.86
2018-11-05T11:19:52.807Z,983.81
2018-11-05T11:20:53.024Z,983.81
2018-11-05T11:21:53.087Z,983.77
2018-11-05T11:22:53.165Z,983.75
2018-11-05T11:23:53.322Z,983.74
2018-11-05T11:24:53.459Z,983.76
2018-11-05T11:25:53.596Z,983.75
2018-11-05T11:26:53.730Z,983.76
2018-11-05T11:27:53.999Z,983.72
2018-11-05T11:28:54.187Z,983.68
2018-11-05T11:29:54.116Z,983.61
2018-11-05T11:30:54.254Z,983.60
2018-11-05T11:31:54.418Z,983.56
2018-11-05T11:32:54.638Z,983.54
2018-11-05T11:33:54.648Z,983.48
2018-11-05T11:34:54.798Z,983.46
2018-11-05T11:35:54.931Z,983.44
2018-11-05T11:36:59.818Z,983.37
2018-11-05T11:37:55.187Z,983.32
2018-11-05T11:38:55.330Z,983.29
2018-11-05T11:39:56.324Z,983.25
2018-11-05T11:40:55.534Z,983.29
2018-11-05T11:41:55.674Z,983.30
2018-11-05T11:42:55.808Z,983.28
2018-11-05T11:43:55.979Z,983.23
2018-11-05T11:44:56.214Z,983.20
2018-11-05T11:45:56.169Z,983.20
2018-11-05T11:46:56.293Z,983.18
2018-11-05T11:47:56.471Z,983.21
2018-11-05T11:48:56.602Z,983.29
2018-11-05T11:49:56.743Z,983.30
2018-11-05T11:50:56.878Z,983.26
2018-11-05T11:51:57.039Z,983.29
2018-11-05T11:52:57.197Z,983.27
2018-11-05T11:53:57.310Z,983.21
2018-11-05T11:54:57.439Z,983.14
2018-11-05T11:55:57.593Z,983.08
2018-11-05T11:56:57.725Z,983.06
2018-11-05T11:57:57.857Z,983.05
2018-11-05T11:58:57.995Z,983.06
2018-11-05T11:59:58.155Z,983.04
2018-11-05T12:00:58.413Z,983.09
2018-11-05T12:01:58.419Z,983.11
2018-11-05T12:02:58.561Z,983.11
2018-11-05T12:03:58.710Z,983.04
2018-11-05T12:04:58.890Z,983.11
2018-11-05T12:05:58.983Z,983.05
2018-11-05T12:06:59.121Z,983.02
2018-11-05T12:07:59.248Z,983.00
2018-11-05T12:09:00.155Z,983.02
2018-11-05T12:09:59.508Z,983.03
2018-11-05T12:10:59.667Z,982.99
2018-11-05T12:11:59.799Z,982.96
2018-11-05T12:12:59.939Z,982.95
2018-11-05T12:14:00.115Z,982.94
2018-11-05T12:15:00.429Z,982.96
2018-11-05T12:16:00.370Z,982.84
2018-11-05T12:17:00.503Z,982.84
2018-11-05T12:18:00.647Z,982.80
2018-11-05T12:19:00.797Z,982.77
2018-11-05T12:20:00.932Z,982.77
2018-11-05T12:21:01.071Z,982.77
2018-11-05T12:22:01.214Z,982.84
2018-11-05T12:23:01.357Z,982.85
2018-11-05T12:24:01.489Z,982.81
2018-11-05T12:25:01.764Z,982.80
2018-11-05T12:26:01.789Z,982.76
2018-11-05T12:27:01.930Z,982.71
2018-11-05T12:28:02.067Z,982.70
2018-11-05T12:29:02.201Z,982.72
2018-11-05T12:30:02.342Z,982.71
2018-11-05T12:31:02.480Z,982.75
2018-11-05T12:32:02.623Z,982.83
2018-11-05T12:33:02.759Z,982.77